Time;durP1;ratioP1;P1;durP2;ratioP2;P2;SDS_P1;SDS_P2;PMS_P1;PMS_P2;Temp;Humidity;BMP_temperature;BMP_pressure;BME280_temperature;BME280_humidity;BME280_pressure;Samples;Min_cycle;Max_cycle;Signal;HPM_P1;HPM_P2
2023/12/16 00:01:05;;;;;;;32.60;10.73;;;;;;;-4.11;100.00;101732.81;5116772;28;20054;-69
2023/12/16 00:03:31;;;;;;;24.40;8.23;;;;;;;-4.11;100.00;101748.44;5114092;28;20031;-67
2023/12/16 00:05:57;;;;;;;18.20;8.17;;;;;;;-4.20;100.00;101746.09;5113417;28;20043;-70
2023/12/16 00:08:22;;;;;;;15.93;7.40;;;;;;;-4.09;100.00;101759.63;5114111;27;20036;-70
2023/12/16 00:10:48;;;;;;;17.17;8.07;;;;;;;-4.19;100.00;101748.66;5113709;28;20479;-70
2023/12/16 00:13:14;;;;;;;13.03;8.17;;;;;;;-4.31;100.00;101742.97;5112167;28;20036;-69
2023/12/16 00:15:39;;;;;;;16.67;7.83;;;;;;;-4.40;100.00;101750.13;5111929;28;20058;-69
2023/12/16 00:18:05;;;;;;;17.60;7.80;;;;;;;-4.32;100.00;101770.72;5113456;28;20471;-68
2023/12/16 00:20:31;;;;;;;13.40;7.43;;;;;;;-4.47;100.00;101745.13;5112146;28;20523;-69
2023/12/16 00:22:56;;;;;;;20.47;9.33;;;;;;;-4.41;100.00;101763.16;5111911;28;20043;-67
2023/12/16 00:25:22;;;;;;;17.93;8.73;;;;;;;-4.30;100.00;101783.69;5111862;28;20493;-68
2023/12/16 00:27:48;;;;;;;19.70;8.27;;;;;;;-4.26;100.00;101787.91;5113069;28;20039;-69
2023/12/16 00:30:13;;;;;;;13.30;7.97;;;;;;;-4.22;100.00;101792.97;5112927;28;20040;-70
2023/12/16 00:32:39;;;;;;;21.50;10.90;;;;;;;-4.28;100.00;101779.28;5113129;28;20112;-70
2023/12/16 00:35:09;;;;;;;18.77;7.70;;;;;;;-4.28;100.00;101785.34;5112785;28;20039;-68
2023/12/16 00:37:35;;;;;;;19.40;8.98;;;;;;;-4.25;100.00;101806.06;5112498;28;20035;-69
2023/12/16 00:40:02;;;;;;;17.27;9.32;;;;;;;-4.64;100.00;101735.19;5112712;28;20042;-69
2023/12/16 00:42:31;;;;;;;16.75;7.30;;;;;;;-4.35;100.00;101789.00;5112925;28;20046;-70
2023/12/16 00:44:57;;;;;;;18.50;8.83;;;;;;;-4.44;100.00;101774.50;5112700;28;20516;-68
2023/12/16 00:47:23;;;;;;;15.85;9.32;;;;;;;-4.25;100.00;101803.47;5111554;28;20379;-68
2023/12/16 00:49:49;;;;;;;17.77;9.43;;;;;;;-4.21;100.00;101802.47;5112814;28;20045;-69
2023/12/16 00:52:14;;;;;;;21.27;9.20;;;;;;;-4.36;100.00;101780.34;5112717;28;20032;-69
2023/12/16 00:54:40;;;;;;;21.87;9.20;;;;;;;-4.28;100.00;101790.53;5112972;28;20049;-68
2023/12/16 00:57:05;;;;;;;24.63;9.03;;;;;;;-4.36;100.00;101776.88;5111269;28;20384;-68
2023/12/16 00:59:31;;;;;;;19.93;9.07;;;;;;;-4.24;100.00;101797.38;5112261;28;20059;-69
2023/12/16 01:01:57;;;;;;;16.80;10.03;;;;;;;-4.42;100.00;101766.66;5112548;28;20155;-68
2023/12/16 01:04:22;;;;;;;21.57;9.03;;;;;;;-4.23;100.00;101787.81;5112035;28;20446;-67
2023/12/16 01:06:48;;;;;;;16.87;9.40;;;;;;;-4.21;100.00;101797.28;5113162;28;20032;-69
2023/12/16 01:09:13;;;;;;;19.70;9.73;;;;;;;-4.22;100.00;101790.38;5111476;28;20035;-70
2023/12/16 01:11:40;;;;;;;15.97;8.53;;;;;;;-4.22;100.00;101790.38;5111566;28;20118;-69
2023/12/16 01:14:08;;;;;;;24.48;9.95;;;;;;;-4.37;100.00;101780.38;5112044;28;20512;-68
2023/12/16 01:16:34;;;;;;;16.75;8.13;;;;;;;-4.31;100.00;101785.44;5112484;28;20043;-68
2023/12/16 01:18:59;;;;;;;19.97;9.27;;;;;;;-4.32;100.00;101788.94;5112705;28;20038;-67
2023/12/16 01:21:25;;;;;;;13.30;7.70;;;;;;;-4.32;100.00;101782.88;5112443;28;20042;-68
2023/12/16 01:23:51;;;;;;;19.73;9.87;;;;;;;-4.26;100.00;101791.34;5111023;28;20442;-68
2023/12/16 01:26:17;;;;;;;16.40;8.33;;;;;;;-4.50;100.00;101751.28;5112497;28;20054;-69
2023/12/16 01:28:43;;;;;;;18.07;8.73;;;;;;;-4.24;100.00;101786.97;5112360;28;20478;-71
2023/12/16 01:31:08;;;;;;;15.38;8.40;;;;;;;-4.40;100.00;101770.06;5112083;28;20028;-70
2023/12/16 01:33:34;;;;;;;17.47;9.13;;;;;;;-4.53;100.00;101764.38;5112655;28;20034;-69
2023/12/16 01:36:00;;;;;;;17.60;9.13;;;;;;;-4.32;100.00;101798.47;5112384;28;20039;-72
2023/12/16 01:38:25;;;;;;;14.53;8.20;;;;;;;-4.32;100.00;101794.13;5111885;28;20521;-70
2023/12/16 01:40:51;;;;;;;18.47;9.63;;;;;;;-4.27;100.00;101805.25;5111004;28;20038;-69
2023/12/16 01:43:16;;;;;;;21.10;8.67;;;;;;;-5.28;100.00;101646.00;5112163;28;20035;-70
2023/12/16 01:45:42;;;;;;;13.90;8.60;;;;;;;-4.23;100.00;101813.81;5112378;28;20035;-70
2023/12/16 01:48:10;;;;;;;13.27;8.33;;;;;;;-4.26;100.00;101791.34;5114512;28;20039;-68
2023/12/16 01:50:36;;;;;;;17.02;8.85;;;;;;;-4.21;100.00;101807.69;5116538;28;20035;-71
2023/12/16 01:53:04;;;;;;;14.17;9.20;;;;;;;-4.58;100.00;101750.66;5116343;28;20132;-70
2023/12/16 01:55:30;;;;;;;17.25;8.68;;;;;;;-4.29;100.00;101807.06;5115678;28;20040;-68
2023/12/16 01:57:56;;;;;;;18.98;9.25;;;;;;;-4.63;100.00;101736.91;5115863;28;20399;-69
2023/12/16 02:00:23;;;;;;;18.33;7.82;;;;;;;-4.15;100.00;101811.84;5116050;28;20044;-67
2023/12/16 02:02:49;;;;;;;16.15;9.02;;;;;;;-4.11;100.00;101814.31;5116178;28;20046;-69
2023/12/16 02:05:15;;;;;;;13.70;8.20;;;;;;;-4.23;100.00;101783.47;5097919;28;20036;-69
2023/12/16 02:07:43;;;;;;;17.57;8.83;;;;;;;-4.18;100.00;101786.78;5114646;28;20036;-71
2023/12/16 02:10:09;;;;;;;13.68;8.23;;;;;;;-4.07;100.00;101789.91;5115893;28;20147;-68
2023/12/16 02:12:36;;;;;;;16.48;9.77;;;;;;;-4.01;100.00;101790.66;5117288;28;20036;-69
2023/12/16 02:15:03;;;;;;;15.02;8.82;;;;;;;-4.01;100.00;101791.50;5119376;28;20059;-67
2023/12/16 02:17:36;;;;;;;18.15;8.75;;;;;;;-4.01;100.00;101778.50;5119906;28;20103;-68
2023/12/16 02:20:22;;;;;;;13.15;8.10;;;;;;;-4.14;100.00;101732.91;5117225;28;20039;-68
2023/12/16 02:22:48;;;;;;;15.07;9.90;;;;;;;-3.88;100.00;101768.56;5115464;28;20177;-68
2023/12/16 02:25:15;;;;;;;16.73;9.15;;;;;;;-3.89;100.00;101772.06;5116507;28;20044;-69
2023/12/16 02:27:41;;;;;;;16.48;10.10;;;;;;;-4.08;100.00;101751.78;5114996;28;20038;-71
2023/12/16 02:30:10;;;;;;;16.63;8.63;;;;;;;-3.94;100.00;101774.81;5115784;28;20039;-70
2023/12/16 02:32:36;;;;;;;10.82;7.15;;;;;;;-4.07;100.00;101750.88;5115637;28;20453;-72
2023/12/16 02:35:02;;;;;;;12.83;8.40;;;;;;;-4.06;100.00;101755.19;5115364;28;20088;-68
2023/12/16 02:37:31;;;;;;;18.73;7.72;;;;;;;-3.91;100.00;101769.50;5115161;27;20035;-71
2023/12/16 02:39:56;;;;;;;17.03;8.20;;;;;;;-4.36;100.00;101688.47;5115165;28;20048;-70
2023/12/16 02:42:22;;;;;;;12.90;7.43;;;;;;;-3.93;100.00;101749.63;5115220;28;20044;-71
2023/12/16 02:44:48;;;;;;;12.37;7.03;;;;;;;-4.08;100.00;101724.91;5115184;28;20383;-68
2023/12/16 02:47:13;;;;;;;14.50;7.03;;;;;;;-3.80;100.00;101772.63;5115200;28;20495;-67
2023/12/16 02:49:39;;;;;;;15.50;9.70;;;;;;;-3.90;100.00;101749.53;5113753;28;20067;-68
2023/12/16 02:52:05;;;;;;;18.70;7.40;;;;;;;-3.95;100.00;101738.44;5114741;28;20035;-68
2023/12/16 02:54:31;;;;;;;14.97;7.67;;;;;;;-3.99;100.00;101737.69;5113659;28;20304;-68
2023/12/16 02:56:56;;;;;;;11.27;8.27;;;;;;;-3.79;100.00;101768.28;5113538;28;20039;-69
2023/12/16 02:59:22;;;;;;;14.43;8.43;;;;;;;-3.87;100.00;101744.25;5113661;28;20089;-69
2023/12/16 03:01:48;;;;;;;14.13;8.20;;;;;;;-3.67;100.00;101778.34;5115094;28;20032;-68
2023/12/16 03:04:13;;;;;;;19.60;8.23;;;;;;;-3.63;100.00;101779.09;5115109;28;20042;-69
2023/12/16 03:06:43;;;;;;;13.20;7.97;;;;;;;-3.76;100.00;101762.97;5114375;28;20092;-68
2023/12/16 03:09:09;;;;;;;13.00;6.90;;;;;;;-3.70;100.00;101775.81;5114625;28;20036;-68
2023/12/16 03:11:35;;;;;;;13.03;7.83;;;;;;;-3.68;100.00;101781.84;5114582;28;20139;-67
2023/12/16 03:14:01;;;;;;;12.97;7.57;;;;;;;-3.71;100.00;101771.53;5113984;27;20066;-68
2023/12/16 03:16:28;;;;;;;10.07;7.47;;;;;;;-3.73;100.00;101773.31;5113136;28;20051;-69
2023/12/16 03:18:54;;;;;;;14.70;7.05;;;;;;;-3.70;100.00;101762.81;5114209;28;20039;-64
2023/12/16 03:21:19;;;;;;;16.33;9.20;;;;;;;-3.57;100.00;101787.56;5114241;28;20379;-66
2023/12/16 03:23:45;;;;;;;16.13;7.83;;;;;;;-3.52;100.00;101784.81;5114357;28;20081;-67
2023/12/16 03:26:11;;;;;;;14.83;9.30;;;;;;;-3.53;100.00;101770.94;5114561;28;20064;-68
2023/12/16 03:28:36;;;;;;;13.57;7.80;;;;;;;-3.69;100.00;101748.91;5114354;28;20035;-69
2023/12/16 03:31:02;;;;;;;12.93;8.30;;;;;;;-3.61;100.00;101767.72;5114388;28;20163;-72
2023/12/16 03:33:28;;;;;;;11.37;6.40;;;;;;;-3.66;100.00;101780.03;5113869;28;20043;-67
2023/12/16 03:35:53;;;;;;;14.37;8.27;;;;;;;-3.51;100.00;101807.34;5113783;28;20035;-67
2023/12/16 03:38:19;;;;;;;12.57;6.73;;;;;;;-3.54;100.00;101810.88;5112674;28;20043;-68
2023/12/16 03:40:44;;;;;;;19.07;7.77;;;;;;;-3.69;100.00;101793.16;5114051;28;20040;-69
2023/12/16 03:43:12;;;;;;;10.67;6.67;;;;;;;-3.63;100.00;101805.13;5113829;27;20509;-69
2023/12/16 03:45:37;;;;;;;12.07;6.68;;;;;;;-3.58;100.00;101811.88;5113630;28;20447;-66
2023/12/16 03:48:03;;;;;;;13.90;7.77;;;;;;;-3.54;100.00;101816.09;5113410;28;20127;-68
2023/12/16 03:50:29;;;;;;;16.33;7.50;;;;;;;-3.73;100.00;101783.72;5113442;28;20110;-66
2023/12/16 03:52:54;;;;;;;12.23;6.13;;;;;;;-3.52;100.00;101824.72;5113706;28;20062;-69
2023/12/16 03:55:20;;;;;;;11.27;6.53;;;;;;;-3.68;100.00;101807.88;5113679;28;20399;-70
2023/12/16 03:57:45;;;;;;;10.57;6.33;;;;;;;-3.69;100.00;101802.72;5112302;28;20123;-67
2023/12/16 04:00:12;;;;;;;14.27;8.27;;;;;;;-3.58;100.00;101818.84;5113460;28;20044;-67
2023/12/16 04:02:37;;;;;;;14.43;6.70;;;;;;;-3.71;100.00;101802.75;5113471;28;20042;-69
2023/12/16 04:05:03;;;;;;;16.97;7.03;;;;;;;-3.77;100.00;101806.38;5112061;28;20027;-69
2023/12/16 04:07:29;;;;;;;15.30;7.65;;;;;;;-3.88;100.00;101812.81;5112325;28;20417;-68
2023/12/16 04:09:55;;;;;;;15.37;8.10;;;;;;;-4.03;100.00;101811.53;5113184;28;20057;-68
2023/12/16 04:12:21;;;;;;;9.83;6.77;;;;;;;-4.23;100.00;101804.28;5113175;28;20028;-68
2023/12/16 04:14:47;;;;;;;11.43;7.87;;;;;;;-4.37;100.00;101804.63;5113053;28;20059;-67
2023/12/16 04:17:13;;;;;;;13.60;7.80;;;;;;;-4.38;100.00;101825.47;5111686;28;20078;-68
2023/12/16 04:19:48;;;;;;;11.48;6.82;;;;;;;-4.43;100.00;101828.22;5113175;28;20056;-68
2023/12/16 04:22:13;;;;;;;9.38;6.30;;;;;;;-4.65;100.00;101801.06;5112929;28;20118;-66
2023/12/16 04:24:39;;;;;;;16.50;7.47;;;;;;;-4.54;100.00;101832.84;5113100;28;20562;-68
2023/12/16 04:27:04;;;;;;;8.13;6.23;;;;;;;-4.62;100.00;101826.16;5113030;28;20051;-68
2023/12/16 04:29:30;;;;;;;10.03;7.17;;;;;;;-4.67;100.00;101824.50;5112752;28;20036;-68
2023/12/16 04:31:56;;;;;;;12.33;7.47;;;;;;;-4.80;100.00;101812.75;5112498;28;20063;-68
2023/12/16 04:34:21;;;;;;;15.03;8.07;;;;;;;-4.64;100.00;101838.31;5094768;28;20032;-67
2023/12/16 04:36:47;;;;;;;13.33;8.00;;;;;;;-5.03;100.00;101773.50;5111075;28;20042;-67
2023/12/16 04:39:12;;;;;;;14.70;8.40;;;;;;;-4.86;100.00;101804.25;5111652;28;20564;-68
2023/12/16 04:41:38;;;;;;;15.23;7.33;;;;;;;-4.70;100.00;101823.75;5111203;28;20080;-68
2023/12/16 04:44:04;;;;;;;9.37;7.00;;;;;;;-4.75;100.00;101821.25;5111280;28;20084;-68
2023/12/16 04:46:29;;;;;;;12.37;7.13;;;;;;;-4.59;100.00;101833.88;5111310;28;20039;-69
2023/12/16 04:48:55;;;;;;;14.20;7.00;;;;;;;-4.94;100.00;101757.66;5111045;28;20067;-68
2023/12/16 04:51:21;;;;;;;12.13;7.10;;;;;;;-4.53;100.00;101815.50;5112756;28;20064;-68
2023/12/16 04:53:46;;;;;;;12.90;6.60;;;;;;;-4.53;100.00;101805.97;5112404;28;20490;-68
2023/12/16 04:56:12;;;;;;;11.37;7.40;;;;;;;-4.50;100.00;101805.88;5112391;28;20074;-67
2023/12/16 04:58:37;;;;;;;11.03;9.20;;;;;;;-4.30;100.00;101822.69;5112316;28;20043;-67
2023/12/16 05:01:03;;;;;;;15.63;9.03;;;;;;;-4.11;100.00;101847.28;5110968;28;20047;-68
2023/12/16 05:03:31;;;;;;;10.37;7.53;;;;;;;-4.06;100.00;101846.25;5110955;28;20463;-67
2023/12/16 05:05:57;;;;;;;9.88;7.57;;;;;;;-4.00;100.00;101836.59;5111649;28;20036;-68
2023/12/16 05:08:22;;;;;;;11.53;6.43;;;;;;;-3.93;100.00;101844.19;5111677;28;20084;-68
2023/12/16 05:10:48;;;;;;;14.63;8.13;;;;;;;-4.19;100.00;101795.47;5111089;28;20070;-68
2023/12/16 05:13:15;;;;;;;12.10;7.67;;;;;;;-4.06;100.00;101812.44;5111885;28;20058;-69
2023/12/16 05:15:41;;;;;;;12.05;8.52;;;;;;;-3.95;100.00;101834.72;5112184;28;20518;-69
2023/12/16 05:18:07;;;;;;;12.65;6.93;;;;;;;-3.81;100.00;101863.78;5112882;28;20048;-69
2023/12/16 05:20:34;;;;;;;13.70;7.28;;;;;;;-4.01;100.00;101834.88;5110904;28;20031;-68
2023/12/16 05:23:00;;;;;;;14.88;7.22;;;;;;;-3.94;100.00;101852.88;5110593;28;20479;-67
2023/12/16 05:25:30;;;;;;;12.18;7.20;;;;;;;-3.83;100.00;101861.22;5112866;28;20444;-68
2023/12/16 05:27:56;;;;;;;12.02;7.72;;;;;;;-3.82;100.00;101862.06;5121556;28;20047;-67
2023/12/16 05:30:23;;;;;;;10.35;6.90;;;;;;;-3.88;100.00;101864.84;5111680;28;20043;-68
2023/12/16 05:32:49;;;;;;;18.35;8.45;;;;;;;-4.13;100.00;101834.31;5111854;28;20035;-67
2023/12/16 05:35:15;;;;;;;12.83;7.20;;;;;;;-4.09;100.00;101833.34;5110530;28;20409;-67
2023/12/16 05:37:41;;;;;;;9.95;6.65;;;;;;;-3.98;100.00;101850.41;5110848;28;20296;-68
2023/12/16 05:40:07;;;;;;;12.33;6.43;;;;;;;-4.25;100.00;101816.47;5112155;28;20074;-67
2023/12/16 05:42:33;;;;;;;11.60;6.95;;;;;;;-4.08;100.00;101845.44;5113245;28;20035;-68
2023/12/16 05:44:58;;;;;;;10.33;7.23;;;;;;;-3.99;100.00;101861.72;5131390;28;20024;-69
2023/12/16 05:47:24;;;;;;;15.50;7.33;;;;;;;-4.02;100.00;101859.22;5125283;28;20024;-67
2023/12/16 05:49:50;;;;;;;11.32;6.95;;;;;;;-3.90;100.00;101859.69;5111297;28;20034;-67
2023/12/16 05:52:16;;;;;;;16.13;7.40;;;;;;;-3.89;100.00;101857.94;5112075;28;20122;-67
2023/12/16 05:54:41;;;;;;;19.33;7.87;;;;;;;-4.03;100.00;101844.50;5112340;28;20176;-70
2023/12/16 05:57:07;;;;;;;8.53;6.30;;;;;;;-3.89;100.00;101871.81;5112024;28;20123;-69
2023/12/16 05:59:34;;;;;;;16.20;7.83;;;;;;;-3.85;100.00;101862.16;5113616;28;20032;-68
2023/12/16 06:02:00;;;;;;;13.60;7.57;;;;;;;-3.86;100.00;101865.66;5120238;28;20039;-70
2023/12/16 06:04:26;;;;;;;12.25;6.82;;;;;;;-3.87;100.00;101863.97;5116088;28;20031;-67
2023/12/16 06:06:51;;;;;;;16.17;7.50;;;;;;;-4.07;100.00;101828.09;5116369;28;20093;-69
2023/12/16 06:09:17;;;;;;;10.80;6.63;;;;;;;-3.78;100.00;101863.69;5120536;28;20055;-68
2023/12/16 06:11:43;;;;;;;10.17;7.57;;;;;;;-3.99;100.00;101822.69;5115304;28;20032;-71
2023/12/16 06:14:09;;;;;;;14.07;7.60;;;;;;;-3.90;100.00;101840.63;5114292;28;20289;-67
2023/12/16 06:16:37;;;;;;;10.20;7.27;;;;;;;-3.82;100.00;101851.66;5114775;28;20096;-69
2023/12/16 06:19:02;;;;;;;11.52;6.75;;;;;;;-3.69;100.00;101858.22;5115406;28;20047;-69
2023/12/16 06:21:29;;;;;;;10.97;6.43;;;;;;;-3.63;100.00;101855.44;5116361;28;20047;-69
2023/12/16 06:23:58;;;;;;;17.80;7.45;;;;;;;-3.71;100.00;101836.59;5115960;28;20055;-67
2023/12/16 06:26:24;;;;;;;11.45;6.40;;;;;;;-3.76;100.00;101826.34;5115900;28;20043;-67
2023/12/16 06:28:51;;;;;;;18.38;7.40;;;;;;;-3.63;100.00;101842.44;5114718;28;20490;-68
2023/12/16 06:31:17;;;;;;;15.98;5.88;;;;;;;-3.77;100.00;101805.53;5115363;28;20039;-68
2023/12/16 06:33:43;;;;;;;9.48;6.03;;;;;;;-3.74;100.00;101815.88;5115192;28;20027;-68
2023/12/16 06:36:09;;;;;;;12.87;6.27;;;;;;;-3.61;100.00;101830.22;5118974;28;20533;-67
2023/12/16 06:38:34;;;;;;;12.10;7.10;;;;;;;-3.70;100.00;101816.63;5119933;28;20085;-67
2023/12/16 06:41:00;;;;;;;10.97;6.83;;;;;;;-3.80;100.00;101787.41;5117675;28;20091;-66
2023/12/16 06:43:26;;;;;;;13.48;7.78;;;;;;;-3.54;100.00;101839.53;5109768;28;20593;-71
2023/12/16 06:45:51;;;;;;;11.40;7.23;;;;;;;-3.41;100.00;101836.56;5106081;28;20048;-69
2023/12/16 06:48:17;;;;;;;9.90;6.23;;;;;;;-3.35;100.00;101832.03;5114899;28;20043;-69
2023/12/16 06:50:43;;;;;;;9.87;5.80;;;;;;;-3.85;100.00;101750.25;5116029;28;20028;-69
2023/12/16 06:53:08;;;;;;;10.70;7.63;;;;;;;-3.50;100.00;101802.06;5104575;28;20169;-68
2023/12/16 06:55:34;;;;;;;11.47;6.70;;;;;;;-3.30;100.00;101821.44;5084139;28;20038;-70
2023/12/16 06:57:59;;;;;;;9.13;6.47;;;;;;;-3.40;100.00;101801.81;5101814;28;20036;-69
2023/12/16 07:00:25;;;;;;;11.33;6.13;;;;;;;-3.24;100.00;101834.28;5100678;28;20395;-69
2023/12/16 07:02:51;;;;;;;7.77;5.93;;;;;;;-3.36;100.00;101819.03;5103225;28;20363;-68
2023/12/16 07:05:16;;;;;;;9.53;6.47;;;;;;;-3.44;100.00;101812.34;5105547;28;20032;-67
2023/12/16 07:07:43;;;;;;;9.93;6.70;;;;;;;-3.23;100.00;101835.97;5102937;28;20036;-67
2023/12/16 07:10:08;;;;;;;10.93;7.05;;;;;;;-3.38;100.00;101810.44;5102158;28;20024;-69
2023/12/16 07:12:34;;;;;;;9.17;6.07;;;;;;;-3.14;100.00;101840.91;5104976;28;20541;-71
2023/12/16 07:15:02;;;;;;;9.73;6.13;;;;;;;-3.26;100.00;101810.88;5102302;28;20108;-70
2023/12/16 07:17:33;;;;;;;11.13;6.18;;;;;;;-3.22;100.00;101812.47;5103388;28;20059;-68
2023/12/16 07:19:59;;;;;;;8.50;6.32;;;;;;;-3.28;100.00;101793.59;5104144;28;20036;-68
2023/12/16 07:22:25;;;;;;;7.83;5.73;;;;;;;-3.44;100.00;101757.63;5107529;28;20032;-69
2023/12/16 07:24:51;;;;;;;10.60;6.57;;;;;;;-3.08;100.00;101809.44;5108785;28;20388;-70
2023/12/16 07:27:16;;;;;;;12.53;5.53;;;;;;;-3.21;100.00;101771.66;5106182;28;20269;-70
2023/12/16 07:29:42;;;;;;;9.63;6.10;;;;;;;-2.93;100.00;101819.34;5104893;28;20067;-70
2023/12/16 07:32:08;;;;;;;9.27;6.27;;;;;;;-2.93;100.00;101824.56;5103845;28;20051;-67
2023/12/16 07:34:34;;;;;;;10.00;6.50;;;;;;;-2.99;100.00;101819.56;5105119;28;20059;-68
2023/12/16 07:36:59;;;;;;;8.80;5.67;;;;;;;-2.93;100.00;101819.34;5105042;28;20073;-71
2023/12/16 07:39:25;;;;;;;8.50;5.50;;;;;;;-2.99;100.00;101814.34;5102098;28;20035;-69
2023/12/16 07:41:51;;;;;;;7.93;5.97;;;;;;;-2.91;100.00;101821.91;5099492;28;20043;-69
2023/12/16 07:44:16;;;;;;;7.27;5.73;;;;;;;-2.89;100.00;101834.00;5099660;28;20082;-67
2023/12/16 07:46:42;;;;;;;9.30;5.80;;;;;;;-3.04;100.00;101805.84;5104745;28;20028;-67
2023/12/16 07:49:08;;;;;;;10.80;5.80;;;;;;;-2.78;100.00;101840.63;5103880;28;20039;-69
2023/12/16 07:51:36;;;;;;;11.27;6.63;;;;;;;-2.73;100.00;101841.31;5112676;28;20101;-67
2023/12/16 07:54:02;;;;;;;9.43;5.97;;;;;;;-2.71;100.00;101847.31;5112510;28;20032;-68
2023/12/16 07:56:28;;;;;;;7.32;5.75;;;;;;;-2.75;99.61;101837.91;5114919;28;20039;-71
2023/12/16 07:58:55;;;;;;;8.82;6.90;;;;;;;-2.73;99.09;101836.94;5114459;28;20421;-71
2023/12/16 08:01:21;;;;;;;10.48;6.05;;;;;;;-2.89;99.94;101810.56;5113264;28;20082;-67
2023/12/16 08:03:47;;;;;;;7.15;5.55;;;;;;;-2.69;98.01;101842.91;5113303;28;20036;-66
2023/12/16 08:06:16;;;;;;;7.03;5.03;;;;;;;-2.72;97.70;101848.22;5112870;28;20043;-73
2023/12/16 08:08:43;;;;;;;10.82;7.03;;;;;;;-2.71;98.16;101845.56;5111422;28;20036;-67
2023/12/16 08:11:09;;;;;;;10.23;6.45;;;;;;;-2.88;99.65;101817.47;5113439;28;20078;-71
2023/12/16 08:13:35;;;;;;;7.40;5.40;;;;;;;-2.64;99.37;101844.44;5112980;28;20058;-70
2023/12/16 08:16:07;;;;;;;8.20;6.03;;;;;;;-2.74;99.07;101810.94;5109967;28;20370;-69
2023/12/16 08:18:32;;;;;;;10.88;5.75;;;;;;;-2.63;99.03;101827.03;5094919;28;20044;-67
2023/12/16 08:20:58;;;;;;;9.33;6.00;;;;;;;-2.64;100.00;101814.91;5091160;28;20036;-66
2023/12/16 08:23:24;;;;;;;8.80;6.00;;;;;;;-2.46;99.86;101835.16;5092691;28;20456;-69
2023/12/16 08:25:49;;;;;;;9.17;6.40;;;;;;;-2.51;100.00;101816.22;5094211;28;20513;-69
2023/12/16 08:28:16;;;;;;;9.00;6.13;;;;;;;-2.59;100.00;101813.03;5092691;28;20098;-68
2023/12/16 08:30:42;;;;;;;10.48;7.03;;;;;;;-2.48;100.00;101826.53;5112200;28;20039;-71
2023/12/16 08:33:08;;;;;;;11.38;7.57;;;;;;;-2.45;100.00;101816.00;5112893;28;20039;-70
2023/12/16 08:35:34;;;;;;;16.53;9.10;;;;;;;-2.47;100.00;101807.38;5112672;28;20088;-69
2023/12/16 08:38:01;;;;;;;39.27;17.40;;;;;;;-2.49;100.00;101811.78;5113130;28;20428;-65
2023/12/16 08:40:26;;;;;;;43.72;17.65;;;;;;;-2.53;100.00;101815.41;5112305;28;20047;-65
2023/12/16 08:42:52;;;;;;;27.53;16.13;;;;;;;-2.60;100.00;101798.28;5111131;28;20047;-65
2023/12/16 08:45:18;;;;;;;29.50;15.20;;;;;;;-2.36;100.00;101825.25;5111046;28;20039;-65
2023/12/16 08:47:43;;;;;;;20.90;11.83;;;;;;;-2.39;100.00;101804.47;5111240;28;20047;-69
2023/12/16 08:50:09;;;;;;;13.73;10.43;;;;;;;-2.22;100.00;101815.19;5112590;28;20035;-66
2023/12/16 08:52:35;;;;;;;21.00;11.07;;;;;;;-2.14;100.00;101823.56;5112453;28;20080;-66
2023/12/16 08:55:03;;;;;;;18.02;10.43;;;;;;;-2.14;100.00;101809.69;5113268;28;20443;-66
2023/12/16 08:57:29;;;;;;;17.05;10.48;;;;;;;-2.04;100.00;101829.31;5113064;28;20081;-64
2023/12/16 08:59:55;;;;;;;14.97;9.47;;;;;;;-2.21;100.00;101812.50;5113975;28;20028;-66
2023/12/16 09:02:21;;;;;;;17.70;9.83;;;;;;;-2.12;100.00;101820.91;5111903;28;20554;-65
2023/12/16 09:04:47;;;;;;;20.47;10.90;;;;;;;-2.09;100.00;101820.78;5112157;28;20433;-67
2023/12/16 09:07:12;;;;;;;15.80;10.03;;;;;;;-2.08;100.00;101825.94;5112051;28;20123;-66
2023/12/16 09:09:39;;;;;;;13.73;9.50;;;;;;;-2.23;100.00;101795.22;5111913;28;20100;-65
2023/12/16 09:12:05;;;;;;;15.15;9.57;;;;;;;-2.22;100.00;101808.19;5112655;28;20043;-67
2023/12/16 09:14:32;;;;;;;16.88;10.50;;;;;;;-2.31;100.00;101797.25;5111918;28;20070;-67
2023/12/16 09:16:57;;;;;;;11.98;9.25;;;;;;;-2.08;100.00;101825.94;5111036;28;20086;-66
2023/12/16 09:19:26;;;;;;;13.77;9.70;;;;;;;-2.22;100.00;101791.69;5112182;28;20051;-66
2023/12/16 09:21:52;;;;;;;13.13;9.83;;;;;;;-1.97;100.00;101812.53;5110898;28;20486;-69
2023/12/16 09:24:19;;;;;;;17.13;10.63;;;;;;;-2.12;100.00;101784.38;5112093;28;20032;-65
2023/12/16 09:26:45;;;;;;;15.63;9.73;;;;;;;-2.03;100.00;101794.47;5110453;28;20045;-69
2023/12/16 09:29:11;;;;;;;15.20;10.70;;;;;;;-2.00;100.00;101804.81;5111916;28;20039;-65
2023/12/16 09:31:37;;;;;;;12.57;9.57;;;;;;;-2.01;100.00;101798.75;5111950;28;20134;-67
2023/12/16 09:34:04;;;;;;;17.02;10.07;;;;;;;-2.04;100.00;101784.94;5111728;28;20614;-67
2023/12/16 09:36:30;;;;;;;23.95;12.73;;;;;;;-2.00;100.00;101796.97;5112278;28;20046;-67
2023/12/16 09:38:57;;;;;;;17.70;12.68;;;;;;;-1.95;100.00;101803.72;5112232;28;20032;-67
2023/12/16 09:41:28;;;;;;;18.60;12.15;;;;;;;-2.00;100.00;101805.66;5111814;28;20039;-66
2023/12/16 09:43:58;;;;;;;22.60;13.60;;;;;;;-2.09;100.00;101802.53;5111800;28;20038;-68
2023/12/16 09:46:28;;;;;;;30.50;15.18;;;;;;;-2.04;100.00;101811.03;5111870;28;20035;-66
2023/12/16 09:48:54;;;;;;;24.85;14.63;;;;;;;-2.13;100.00;101785.28;5110632;28;20485;-67
2023/12/16 09:51:23;;;;;;;32.75;16.73;;;;;;;-2.04;100.00;101795.38;5111883;28;20118;-66
2023/12/16 09:53:53;;;;;;;24.33;15.33;;;;;;;-2.08;100.00;101781.59;5110562;28;20027;-69
2023/12/16 09:56:19;;;;;;;26.30;16.80;;;;;;;-2.36;100.00;101728.72;5110826;28;20293;-68
2023/12/16 09:58:46;;;;;;;31.00;16.97;;;;;;;-1.82;100.00;101811.09;5093857;28;20277;-67
2023/12/16 10:01:13;;;;;;;33.80;18.20;;;;;;;-1.82;100.00;101790.19;5111380;28;20272;-68
2023/12/16 10:03:40;;;;;;;28.27;16.10;;;;;;;-1.69;100.00;101801.91;5112159;28;20034;-67
2023/12/16 10:06:08;;;;;;;30.80;18.70;;;;;;;-1.65;100.00;101801.72;5112191;28;20035;-66
2023/12/16 10:08:35;;;;;;;28.35;16.35;;;;;;;-1.65;100.00;101793.88;5113353;28;20176;-66
2023/12/16 10:11:02;;;;;;;34.20;18.87;;;;;;;-1.67;100.00;101793.09;5114895;28;20465;-65
2023/12/16 10:13:30;;;;;;;26.37;16.23;;;;;;;-1.70;100.00;101769.69;5115724;28;20268;-64
2023/12/16 10:15:58;;;;;;;30.48;20.13;;;;;;;-1.68;100.00;101767.03;5115733;28;20297;-67
2023/12/16 10:18:25;;;;;;;36.27;21.27;;;;;;;-1.72;100.00;101763.69;5114623;28;20567;-68
2023/12/16 10:20:50;;;;;;;32.77;18.33;;;;;;;-1.80;100.00;101742.22;5114236;28;20269;-68
2023/12/16 10:23:16;;;;;;;37.00;18.63;;;;;;;-1.57;100.00;101773.53;5115581;28;20288;-67
2023/12/16 10:25:42;;;;;;;33.43;20.77;;;;;;;-1.60;100.00;101765.81;5115489;28;20548;-68
2023/12/16 10:28:10;;;;;;;28.40;17.93;;;;;;;-1.63;100.00;101752.88;5115398;28;20038;-66
2023/12/16 10:30:35;;;;;;;48.97;20.50;;;;;;;-1.53;100.00;101765.56;5115517;28;20473;-66
2023/12/16 10:33:03;;;;;;;27.60;16.97;;;;;;;-1.53;100.00;101753.34;5116730;28;20292;-65
2023/12/16 10:35:30;;;;;;;35.30;19.15;;;;;;;-1.71;100.00;101700.09;5115544;28;20405;-65
2023/12/16 10:37:55;;;;;;;26.50;15.27;;;;;;;-1.37;100.00;101745.75;5115733;28;20520;-66
2023/12/16 10:40:23;;;;;;;30.63;16.07;;;;;;;-1.33;100.00;101734.25;5115898;28;20360;-66
2023/12/16 10:42:49;;;;;;;27.35;16.25;;;;;;;-1.38;100.00;101734.47;5114085;28;20449;-66
2023/12/16 10:45:15;;;;;;;26.80;15.07;;;;;;;-1.60;100.00;101687.44;5114019;28;20123;-69
2023/12/16 10:47:42;;;;;;;26.27;15.33;;;;;;;-1.23;100.00;101732.97;5115153;28;20031;-70
2023/12/16 10:50:09;;;;;;;21.03;13.90;;;;;;;-1.18;100.00;101736.22;5117066;28;20327;-65
2023/12/16 10:52:49;;;;;;;21.53;15.80;;;;;;;-1.29;100.00;101707.09;5114977;28;20364;-66
2023/12/16 10:55:22;;;;;;;24.30;14.53;;;;;;;-1.17;100.00;101727.47;5115180;28;20380;-66
2023/12/16 10:57:58;;;;;;;22.60;14.30;;;;;;;-1.33;100.00;101702.91;5114963;28;20764;-65
2023/12/16 11:00:28;;;;;;;22.50;14.17;;;;;;;-1.77;100.00;101636.81;5115302;28;20274;-68
2023/12/16 11:03:14;;;;;;;23.37;14.20;;;;;;;-1.21;100.00;101723.28;5113448;28;20269;-65
2023/12/16 11:05:48;;;;;;;25.63;15.63;;;;;;;-1.36;100.00;101706.50;5072511;28;20269;-67